sensor_id;sensor_type;location;lat;lon;timestamp;P1;durP1;ratioP1;P2;durP2;ratioP2
870;SDS011;422;51.280;7.236;2023-05-15T00:01:47;5.57;;;5.07;;
870;SDS011;422;51.280;7.236;2023-05-15T00:04:14;5.67;;;5.03;;
870;SDS011;422;51.280;7.236;2023-05-15T00:06:42;5.93;;;5.43;;
870;SDS011;422;51.280;7.236;2023-05-15T00:09:10;5.60;;;5.10;;
870;SDS011;422;51.280;7.236;2023-05-15T00:11:37;7.03;;;5.27;;
870;SDS011;422;51.280;7.236;2023-05-15T00:14:05;5.67;;;5.17;;
870;SDS011;422;51.280;7.236;2023-05-15T00:16:32;6.40;;;5.50;;
870;SDS011;422;51.280;7.236;2023-05-15T00:18:59;6.63;;;5.97;;
870;SDS011;422;51.280;7.236;2023-05-15T00:21:31;5.93;;;5.33;;
870;SDS011;422;51.280;7.236;2023-05-15T00:24:01;5.90;;;5.40;;
870;SDS011;422;51.280;7.236;2023-05-15T00:26:30;5.47;;;4.97;;
870;SDS011;422;51.280;7.236;2023-05-15T00:28:57;6.43;;;5.80;;
870;SDS011;422;51.280;7.236;2023-05-15T00:31:24;6.53;;;5.03;;
870;SDS011;422;51.280;7.236;2023-05-15T00:33:53;5.90;;;5.40;;
870;SDS011;422;51.280;7.236;2023-05-15T00:36:20;5.70;;;5.20;;
870;SDS011;422;51.280;7.236;2023-05-15T00:38:49;6.70;;;6.10;;
870;SDS011;422;51.280;7.236;2023-05-15T00:41:17;6.67;;;5.97;;
870;SDS011;422;51.280;7.236;2023-05-15T00:43:48;8.50;;;5.73;;
870;SDS011;422;51.280;7.236;2023-05-15T00:46:16;6.87;;;5.60;;
870;SDS011;422;51.280;7.236;2023-05-15T00:48:45;6.20;;;5.60;;
870;SDS011;422;51.280;7.236;2023-05-15T00:51:13;6.50;;;5.90;;
870;SDS011;422;51.280;7.236;2023-05-15T00:53:43;7.23;;;5.83;;
870;SDS011;422;51.280;7.236;2023-05-15T00:56:11;12.50;;;5.70;;
870;SDS011;422;51.280;7.236;2023-05-15T00:58:40;6.60;;;5.23;;
870;SDS011;422;51.280;7.236;2023-05-15T01:01:10;6.50;;;5.73;;
870;SDS011;422;51.280;7.236;2023-05-15T01:03:37;6.17;;;5.63;;
870;SDS011;422;51.280;7.236;2023-05-15T01:06:04;6.67;;;5.77;;
870;SDS011;422;51.280;7.236;2023-05-15T01:08:33;8.27;;;5.23;;
870;SDS011;422;51.280;7.236;2023-05-15T01:11:03;6.77;;;6.07;;
870;SDS011;422;51.280;7.236;2023-05-15T01:13:33;6.10;;;5.60;;
870;SDS011;422;51.280;7.236;2023-05-15T01:16:00;6.67;;;5.73;;
870;SDS011;422;51.280;7.236;2023-05-15T01:18:29;6.13;;;5.50;;
870;SDS011;422;51.280;7.236;2023-05-15T01:24:01;6.80;;;6.27;;
870;SDS011;422;51.280;7.236;2023-05-15T01:26:43;7.07;;;6.47;;
870;SDS011;422;51.280;7.236;2023-05-15T01:29:35;6.50;;;5.90;;
870;SDS011;422;51.280;7.236;2023-05-15T01:32:07;6.30;;;5.70;;
870;SDS011;422;51.280;7.236;2023-05-15T01:34:44;6.50;;;5.90;;
870;SDS011;422;51.280;7.236;2023-05-15T01:37:31;6.23;;;5.43;;
870;SDS011;422;51.280;7.236;2023-05-15T01:40:04;7.10;;;6.27;;
870;SDS011;422;51.280;7.236;2023-05-15T01:42:34;6.80;;;6.20;;
870;SDS011;422;51.280;7.236;2023-05-15T01:45:08;6.23;;;5.63;;
870;SDS011;422;51.280;7.236;2023-05-15T01:47:38;7.60;;;5.23;;
870;SDS011;422;51.280;7.236;2023-05-15T01:50:09;8.43;;;6.17;;
870;SDS011;422;51.280;7.236;2023-05-15T01:52:40;7.40;;;6.27;;
870;SDS011;422;51.280;7.236;2023-05-15T01:55:10;7.30;;;6.47;;
870;SDS011;422;51.280;7.236;2023-05-15T01:57:39;6.93;;;5.90;;
870;SDS011;422;51.280;7.236;2023-05-15T02:00:10;6.20;;;5.60;;
870;SDS011;422;51.280;7.236;2023-05-15T02:02:39;6.23;;;5.67;;
870;SDS011;422;51.280;7.236;2023-05-15T02:05:08;6.30;;;5.70;;
870;SDS011;422;51.280;7.236;2023-05-15T02:07:35;6.90;;;6.20;;
870;SDS011;422;51.280;7.236;2023-05-15T02:10:03;5.67;;;5.17;;
870;SDS011;422;51.280;7.236;2023-05-15T02:12:32;6.23;;;5.73;;
870;SDS011;422;51.280;7.236;2023-05-15T02:15:00;6.90;;;6.27;;
870;SDS011;422;51.280;7.236;2023-05-15T02:17:30;6.90;;;6.10;;
870;SDS011;422;51.280;7.236;2023-05-15T02:19:58;6.10;;;5.60;;
870;SDS011;422;51.280;7.236;2023-05-15T02:22:25;6.27;;;5.60;;
870;SDS011;422;51.280;7.236;2023-05-15T02:24:52;7.77;;;7.07;;
870;SDS011;422;51.280;7.236;2023-05-15T02:27:21;6.77;;;6.17;;
870;SDS011;422;51.280;7.236;2023-05-15T02:29:56;7.17;;;6.53;;
870;SDS011;422;51.280;7.236;2023-05-15T02:32:37;9.13;;;6.50;;
870;SDS011;422;51.280;7.236;2023-05-15T02:35:15;6.90;;;6.17;;
870;SDS011;422;51.280;7.236;2023-05-15T02:37:47;7.57;;;6.00;;
870;SDS011;422;51.280;7.236;2023-05-15T02:40:17;7.17;;;6.47;;
870;SDS011;422;51.280;7.236;2023-05-15T02:42:45;7.07;;;6.47;;
870;SDS011;422;51.280;7.236;2023-05-15T02:45:14;6.40;;;5.90;;
870;SDS011;422;51.280;7.236;2023-05-15T02:47:44;6.73;;;6.13;;
870;SDS011;422;51.280;7.236;2023-05-15T02:50:14;8.53;;;6.70;;
870;SDS011;422;51.280;7.236;2023-05-15T02:52:42;7.80;;;7.10;;
870;SDS011;422;51.280;7.236;2023-05-15T02:55:09;8.33;;;7.47;;
870;SDS011;422;51.280;7.236;2023-05-15T02:57:36;7.53;;;6.83;;
870;SDS011;422;51.280;7.236;2023-05-15T03:00:04;7.40;;;6.27;;
870;SDS011;422;51.280;7.236;2023-05-15T03:02:36;9.43;;;6.57;;
870;SDS011;422;51.280;7.236;2023-05-15T03:05:05;6.87;;;6.17;;
870;SDS011;422;51.280;7.236;2023-05-15T03:07:33;8.50;;;7.17;;
870;SDS011;422;51.280;7.236;2023-05-15T03:10:00;7.60;;;6.80;;
870;SDS011;422;51.280;7.236;2023-05-15T03:12:28;7.70;;;7.00;;
870;SDS011;422;51.280;7.236;2023-05-15T03:14:55;8.60;;;7.73;;
870;SDS011;422;51.280;7.236;2023-05-15T03:17:22;8.47;;;7.53;;
870;SDS011;422;51.280;7.236;2023-05-15T03:19:50;7.97;;;6.97;;
870;SDS011;422;51.280;7.236;2023-05-15T03:22:18;8.40;;;7.20;;
870;SDS011;422;51.280;7.236;2023-05-15T03:24:46;8.03;;;7.33;;
870;SDS011;422;51.280;7.236;2023-05-15T03:27:13;13.63;;;7.63;;
870;SDS011;422;51.280;7.236;2023-05-15T03:29:40;8.00;;;7.30;;
870;SDS011;422;51.280;7.236;2023-05-15T03:32:07;10.23;;;8.37;;
870;SDS011;422;51.280;7.236;2023-05-15T03:34:35;8.47;;;7.67;;
870;SDS011;422;51.280;7.236;2023-05-15T03:37:02;9.73;;;7.10;;
870;SDS011;422;51.280;7.236;2023-05-15T03:39:30;10.20;;;7.47;;
870;SDS011;422;51.280;7.236;2023-05-15T03:41:57;8.00;;;7.30;;
870;SDS011;422;51.280;7.236;2023-05-15T03:44:25;7.20;;;6.60;;
870;SDS011;422;51.280;7.236;2023-05-15T03:46:52;7.90;;;7.20;;
870;SDS011;422;51.280;7.236;2023-05-15T03:49:19;12.20;;;8.07;;
870;SDS011;422;51.280;7.236;2023-05-15T03:51:46;9.77;;;6.97;;
870;SDS011;422;51.280;7.236;2023-05-15T03:54:13;8.77;;;7.57;;
870;SDS011;422;51.280;7.236;2023-05-15T03:56:42;8.77;;;8.00;;
870;SDS011;422;51.280;7.236;2023-05-15T03:59:09;9.50;;;8.60;;
870;SDS011;422;51.280;7.236;2023-05-15T04:01:36;10.90;;;9.90;;
870;SDS011;422;51.280;7.236;2023-05-15T04:04:03;12.83;;;11.53;;
870;SDS011;422;51.280;7.236;2023-05-15T04:06:30;12.10;;;10.90;;
870;SDS011;422;51.280;7.236;2023-05-15T04:08:58;11.43;;;10.27;;
870;SDS011;422;51.280;7.236;2023-05-15T04:11:25;14.80;;;11.40;;
870;SDS011;422;51.280;7.236;2023-05-15T04:13:54;27.73;;;20.80;;
870;SDS011;422;51.280;7.236;2023-05-15T04:16:21;40.23;;;28.80;;
870;SDS011;422;51.280;7.236;2023-05-15T04:18:48;40.27;;;27.00;;
870;SDS011;422;51.280;7.236;2023-05-15T04:21:15;26.47;;;17.87;;
870;SDS011;422;51.280;7.236;2023-05-15T04:23:42;20.37;;;16.17;;
870;SDS011;422;51.280;7.236;2023-05-15T04:26:09;18.70;;;14.90;;
870;SDS011;422;51.280;7.236;2023-05-15T04:28:36;19.50;;;16.03;;
870;SDS011;422;51.280;7.236;2023-05-15T04:31:05;23.40;;;19.27;;
870;SDS011;422;51.280;7.236;2023-05-15T04:33:32;43.07;;;29.10;;
870;SDS011;422;51.280;7.236;2023-05-15T04:35:59;40.27;;;26.47;;
870;SDS011;422;51.280;7.236;2023-05-15T04:38:27;60.13;;;39.90;;
870;SDS011;422;51.280;7.236;2023-05-15T04:40:54;77.07;;;49.30;;
870;SDS011;422;51.280;7.236;2023-05-15T04:43:21;82.10;;;48.80;;
870;SDS011;422;51.280;7.236;2023-05-15T04:45:48;79.90;;;49.80;;
870;SDS011;422;51.280;7.236;2023-05-15T04:48:17;86.47;;;49.30;;
870;SDS011;422;51.280;7.236;2023-05-15T04:50:44;92.07;;;52.80;;
870;SDS011;422;51.280;7.236;2023-05-15T04:53:11;99.10;;;55.17;;
870;SDS011;422;51.280;7.236;2023-05-15T04:55:39;91.17;;;54.43;;
870;SDS011;422;51.280;7.236;2023-05-15T04:58:06;111.47;;;57.30;;
870;SDS011;422;51.280;7.236;2023-05-15T05:00:33;96.53;;;55.13;;
870;SDS011;422;51.280;7.236;2023-05-15T05:03:01;109.63;;;56.50;;
870;SDS011;422;51.280;7.236;2023-05-15T05:05:30;93.87;;;53.57;;
870;SDS011;422;51.280;7.236;2023-05-15T05:07:57;86.77;;;52.17;;
870;SDS011;422;51.280;7.236;2023-05-15T05:10:24;92.70;;;53.70;;
870;SDS011;422;51.280;7.236;2023-05-15T05:12:52;94.93;;;53.60;;
870;SDS011;422;51.280;7.236;2023-05-15T05:15:19;95.10;;;53.50;;
870;SDS011;422;51.280;7.236;2023-05-15T05:17:46;97.33;;;54.47;;
870;SDS011;422;51.280;7.236;2023-05-15T05:20:13;92.23;;;54.13;;
870;SDS011;422;51.280;7.236;2023-05-15T05:22:42;92.27;;;53.47;;
870;SDS011;422;51.280;7.236;2023-05-15T05:25:09;92.30;;;50.17;;
870;SDS011;422;51.280;7.236;2023-05-15T05:27:36;90.40;;;52.80;;
870;SDS011;422;51.280;7.236;2023-05-15T05:30:04;97.60;;;54.50;;
870;SDS011;422;51.280;7.236;2023-05-15T05:32:32;92.47;;;52.30;;
870;SDS011;422;51.280;7.236;2023-05-15T05:34:59;88.60;;;49.00;;
870;SDS011;422;51.280;7.236;2023-05-15T05:37:28;93.37;;;50.57;;
870;SDS011;422;51.280;7.236;2023-05-15T05:39:56;89.80;;;49.87;;
870;SDS011;422;51.280;7.236;2023-05-15T05:42:23;90.77;;;50.20;;
870;SDS011;422;51.280;7.236;2023-05-15T05:44:51;80.17;;;50.10;;
870;SDS011;422;51.280;7.236;2023-05-15T05:47:18;86.90;;;51.43;;
870;SDS011;422;51.280;7.236;2023-05-15T05:49:45;92.80;;;54.53;;
870;SDS011;422;51.280;7.236;2023-05-15T05:52:12;89.17;;;52.50;;
870;SDS011;422;51.280;7.236;2023-05-15T05:54:40;99.80;;;54.40;;
870;SDS011;422;51.280;7.236;2023-05-15T05:57:11;89.57;;;50.60;;
870;SDS011;422;51.280;7.236;2023-05-15T05:59:38;86.43;;;52.70;;
870;SDS011;422;51.280;7.236;2023-05-15T06:02:06;81.27;;;50.23;;
870;SDS011;422;51.280;7.236;2023-05-15T06:04:33;84.10;;;51.90;;
870;SDS011;422;51.280;7.236;2023-05-15T06:07:00;86.00;;;51.17;;
870;SDS011;422;51.280;7.236;2023-05-15T06:09:28;82.13;;;49.80;;
870;SDS011;422;51.280;7.236;2023-05-15T06:11:55;92.80;;;52.13;;
870;SDS011;422;51.280;7.236;2023-05-15T06:14:23;96.50;;;54.57;;
870;SDS011;422;51.280;7.236;2023-05-15T06:16:50;80.93;;;51.87;;
870;SDS011;422;51.280;7.236;2023-05-15T06:19:20;84.80;;;51.63;;
870;SDS011;422;51.280;7.236;2023-05-15T06:21:47;82.20;;;52.93;;
870;SDS011;422;51.280;7.236;2023-05-15T06:24:15;81.80;;;51.70;;
870;SDS011;422;51.280;7.236;2023-05-15T06:26:42;84.53;;;53.43;;
870;SDS011;422;51.280;7.236;2023-05-15T06:29:09;83.60;;;52.90;;
870;SDS011;422;51.280;7.236;2023-05-15T06:31:38;86.00;;;53.37;;
870;SDS011;422;51.280;7.236;2023-05-15T06:34:05;84.20;;;52.10;;
870;SDS011;422;51.280;7.236;2023-05-15T06:36:35;85.10;;;53.27;;
870;SDS011;422;51.280;7.236;2023-05-15T06:39:02;86.87;;;54.17;;
870;SDS011;422;51.280;7.236;2023-05-15T06:41:30;90.10;;;53.30;;
870;SDS011;422;51.280;7.236;2023-05-15T06:43:58;80.20;;;52.60;;
870;SDS011;422;51.280;7.236;2023-05-15T06:46:25;86.20;;;53.00;;
870;SDS011;422;51.280;7.236;2023-05-15T06:48:54;81.30;;;51.80;;
870;SDS011;422;51.280;7.236;2023-05-15T06:51:21;81.57;;;52.90;;
870;SDS011;422;51.280;7.236;2023-05-15T06:53:48;81.33;;;50.43;;
870;SDS011;422;51.280;7.236;2023-05-15T06:56:15;84.73;;;52.20;;
870;SDS011;422;51.280;7.236;2023-05-15T06:58:46;87.83;;;50.80;;
870;SDS011;422;51.280;7.236;2023-05-15T07:01:13;80.63;;;53.70;;
870;SDS011;422;51.280;7.236;2023-05-15T07:03:40;84.47;;;50.57;;
870;SDS011;422;51.280;7.236;2023-05-15T07:06:09;81.00;;;51.93;;
870;SDS011;422;51.280;7.236;2023-05-15T07:08:36;77.60;;;50.80;;
870;SDS011;422;51.280;7.236;2023-05-15T07:11:03;91.10;;;52.93;;
870;SDS011;422;51.280;7.236;2023-05-15T07:13:31;92.20;;;57.70;;
870;SDS011;422;51.280;7.236;2023-05-15T07:15:58;93.13;;;58.73;;
870;SDS011;422;51.280;7.236;2023-05-15T07:18:25;95.93;;;58.30;;
870;SDS011;422;51.280;7.236;2023-05-15T07:20:52;91.07;;;58.20;;
870;SDS011;422;51.280;7.236;2023-05-15T07:23:21;95.63;;;57.63;;
870;SDS011;422;51.280;7.236;2023-05-15T07:25:48;87.40;;;56.07;;
870;SDS011;422;51.280;7.236;2023-05-15T07:28:15;89.73;;;58.60;;
870;SDS011;422;51.280;7.236;2023-05-15T07:30:42;89.43;;;56.20;;
870;SDS011;422;51.280;7.236;2023-05-15T07:33:09;84.13;;;54.67;;
870;SDS011;422;51.280;7.236;2023-05-15T07:35:37;79.63;;;54.00;;
870;SDS011;422;51.280;7.236;2023-05-15T07:38:04;97.30;;;58.20;;
870;SDS011;422;51.280;7.236;2023-05-15T07:40:32;79.43;;;53.07;;
870;SDS011;422;51.280;7.236;2023-05-15T07:43:00;85.33;;;56.57;;
870;SDS011;422;51.280;7.236;2023-05-15T07:45:27;85.97;;;55.40;;
870;SDS011;422;51.280;7.236;2023-05-15T07:47:54;83.90;;;53.80;;
870;SDS011;422;51.280;7.236;2023-05-15T07:50:22;89.37;;;55.40;;
870;SDS011;422;51.280;7.236;2023-05-15T07:52:50;86.47;;;57.80;;
870;SDS011;422;51.280;7.236;2023-05-15T07:55:17;86.63;;;54.23;;
870;SDS011;422;51.280;7.236;2023-05-15T07:57:46;84.60;;;55.30;;
870;SDS011;422;51.280;7.236;2023-05-15T08:00:13;88.73;;;54.87;;
870;SDS011;422;51.280;7.236;2023-05-15T08:02:41;86.43;;;56.57;;
870;SDS011;422;51.280;7.236;2023-05-15T08:05:10;75.57;;;53.57;;
870;SDS011;422;51.280;7.236;2023-05-15T08:07:37;84.40;;;58.13;;
870;SDS011;422;51.280;7.236;2023-05-15T08:10:05;82.13;;;54.43;;
870;SDS011;422;51.280;7.236;2023-05-15T08:12:33;79.73;;;56.37;;
870;SDS011;422;51.280;7.236;2023-05-15T08:15:02;75.33;;;53.30;;
870;SDS011;422;51.280;7.236;2023-05-15T08:17:29;75.70;;;53.00;;
870;SDS011;422;51.280;7.236;2023-05-15T08:19:56;69.70;;;53.97;;
870;SDS011;422;51.280;7.236;2023-05-15T08:22:24;72.37;;;53.70;;
870;SDS011;422;51.280;7.236;2023-05-15T08:24:51;70.43;;;53.43;;
870;SDS011;422;51.280;7.236;2023-05-15T08:27:18;64.07;;;51.57;;
870;SDS011;422;51.280;7.236;2023-05-15T08:29:45;67.30;;;51.33;;
870;SDS011;422;51.280;7.236;2023-05-15T08:32:14;73.90;;;53.90;;
870;SDS011;422;51.280;7.236;2023-05-15T08:34:44;66.83;;;54.67;;
870;SDS011;422;51.280;7.236;2023-05-15T08:37:11;71.33;;;51.67;;
870;SDS011;422;51.280;7.236;2023-05-15T08:39:38;69.20;;;55.23;;
870;SDS011;422;51.280;7.236;2023-05-15T08:42:07;69.73;;;52.33;;
870;SDS011;422;51.280;7.236;2023-05-15T08:44:40;66.60;;;54.70;;
870;SDS011;422;51.280;7.236;2023-05-15T08:47:07;61.00;;;51.20;;
870;SDS011;422;51.280;7.236;2023-05-15T08:49:44;56.60;;;48.97;;
870;SDS011;422;51.280;7.236;2023-05-15T08:52:17;63.73;;;52.33;;
870;SDS011;422;51.280;7.236;2023-05-15T08:54:44;62.50;;;51.37;;
870;SDS011;422;51.280;7.236;2023-05-15T08:57:12;64.27;;;53.33;;
870;SDS011;422;51.280;7.236;2023-05-15T08:59:40;66.03;;;55.03;;
870;SDS011;422;51.280;7.236;2023-05-15T09:02:08;67.20;;;53.97;;
870;SDS011;422;51.280;7.236;2023-05-15T09:04:37;62.47;;;53.67;;
870;SDS011;422;51.280;7.236;2023-05-15T09:07:04;66.50;;;54.53;;
870;SDS011;422;51.280;7.236;2023-05-15T09:09:32;64.53;;;56.80;;
870;SDS011;422;51.280;7.236;2023-05-15T09:11:59;60.70;;;51.07;;
870;SDS011;422;51.280;7.236;2023-05-15T09:14:27;54.70;;;48.70;;
870;SDS011;422;51.280;7.236;2023-05-15T09:16:55;57.97;;;48.63;;
870;SDS011;422;51.280;7.236;2023-05-15T09:19:22;57.07;;;48.97;;
870;SDS011;422;51.280;7.236;2023-05-15T09:21:51;52.40;;;47.07;;
870;SDS011;422;51.280;7.236;2023-05-15T09:24:19;49.33;;;44.27;;
870;SDS011;422;51.280;7.236;2023-05-15T09:26:59;48.13;;;43.23;;
870;SDS011;422;51.280;7.236;2023-05-15T09:29:28;48.60;;;43.60;;
870;SDS011;422;51.280;7.236;2023-05-15T09:31:56;47.37;;;42.67;;
870;SDS011;422;51.280;7.236;2023-05-15T09:34:29;43.47;;;39.30;;
870;SDS011;422;51.280;7.236;2023-05-15T09:36:59;41.17;;;37.10;;
870;SDS011;422;51.280;7.236;2023-05-15T09:39:27;34.97;;;31.87;;
870;SDS011;422;51.280;7.236;2023-05-15T09:41:56;34.20;;;31.20;;
870;SDS011;422;51.280;7.236;2023-05-15T09:44:31;35.40;;;32.30;;
870;SDS011;422;51.280;7.236;2023-05-15T09:46:59;41.60;;;37.73;;
870;SDS011;422;51.280;7.236;2023-05-15T09:49:26;37.33;;;33.93;;
870;SDS011;422;51.280;7.236;2023-05-15T09:51:56;35.60;;;32.60;;
870;SDS011;422;51.280;7.236;2023-05-15T09:54:26;31.30;;;28.50;;
870;SDS011;422;51.280;7.236;2023-05-15T09:56:54;29.93;;;27.40;;
870;SDS011;422;51.280;7.236;2023-05-15T09:59:21;28.80;;;26.10;;
870;SDS011;422;51.280;7.236;2023-05-15T10:01:49;24.57;;;22.37;;
870;SDS011;422;51.280;7.236;2023-05-15T10:04:17;26.03;;;23.70;;
870;SDS011;422;51.280;7.236;2023-05-15T10:06:44;26.90;;;24.20;;
870;SDS011;422;51.280;7.236;2023-05-15T10:09:14;24.33;;;22.33;;
870;SDS011;422;51.280;7.236;2023-05-15T10:11:42;23.80;;;21.70;;
870;SDS011;422;51.280;7.236;2023-05-15T10:14:10;23.30;;;21.03;;
870;SDS011;422;51.280;7.236;2023-05-15T10:16:39;21.73;;;19.73;;
870;SDS011;422;51.280;7.236;2023-05-15T10:19:07;21.97;;;20.07;;
870;SDS011;422;51.280;7.236;2023-05-15T10:21:36;23.03;;;19.70;;
870;SDS011;422;51.280;7.236;2023-05-15T10:24:04;21.27;;;19.47;;
870;SDS011;422;51.280;7.236;2023-05-15T10:26:36;21.47;;;19.67;;
870;SDS011;422;51.280;7.236;2023-05-15T10:29:04;20.83;;;19.03;;
870;SDS011;422;51.280;7.236;2023-05-15T10:31:32;19.50;;;17.53;;
870;SDS011;422;51.280;7.236;2023-05-15T10:34:00;20.97;;;18.87;;
870;SDS011;422;51.280;7.236;2023-05-15T10:36:28;20.73;;;18.67;;
870;SDS011;422;51.280;7.236;2023-05-15T10:38:57;19.30;;;17.27;;
870;SDS011;422;51.280;7.236;2023-05-15T10:41:26;19.90;;;18.00;;
870;SDS011;422;51.280;7.236;2023-05-15T10:43:57;20.43;;;18.70;;
870;SDS011;422;51.280;7.236;2023-05-15T10:46:26;21.13;;;19.20;;
870;SDS011;422;51.280;7.236;2023-05-15T10:48:55;21.33;;;19.37;;
870;SDS011;422;51.280;7.236;2023-05-15T10:51:25;20.07;;;18.30;;
870;SDS011;422;51.280;7.236;2023-05-15T10:53:54;20.00;;;18.20;;
870;SDS011;422;51.280;7.236;2023-05-15T10:56:25;19.23;;;17.40;;
870;SDS011;422;51.280;7.236;2023-05-15T10:58:54;18.00;;;16.37;;
870;SDS011;422;51.280;7.236;2023-05-15T11:01:26;16.30;;;14.80;;
870;SDS011;422;51.280;7.236;2023-05-15T11:04:06;16.40;;;14.77;;
870;SDS011;422;51.280;7.236;2023-05-15T11:06:39;16.67;;;15.37;;
870;SDS011;422;51.280;7.236;2023-05-15T11:12:00;14.70;;;13.30;;
870;SDS011;422;51.280;7.236;2023-05-15T11:14:30;16.10;;;14.70;;
870;SDS011;422;51.280;7.236;2023-05-15T11:17:02;16.30;;;14.80;;
870;SDS011;422;51.280;7.236;2023-05-15T11:19:31;15.13;;;13.83;;
870;SDS011;422;51.280;7.236;2023-05-15T11:22:17;17.53;;;15.87;;
870;SDS011;422;51.280;7.236;2023-05-15T11:24:46;14.30;;;13.00;;
870;SDS011;422;51.280;7.236;2023-05-15T11:27:18;15.20;;;13.70;;
870;SDS011;422;51.280;7.236;2023-05-15T11:30:03;16.70;;;15.10;;
870;SDS011;422;51.280;7.236;2023-05-15T11:32:47;17.07;;;15.07;;
870;SDS011;422;51.280;7.236;2023-05-15T11:35:21;17.63;;;14.63;;
870;SDS011;422;51.280;7.236;2023-05-15T11:37:50;15.93;;;14.53;;
870;SDS011;422;51.280;7.236;2023-05-15T11:40:18;15.10;;;13.80;;
870;SDS011;422;51.280;7.236;2023-05-15T11:43:00;16.00;;;14.57;;
870;SDS011;422;51.280;7.236;2023-05-15T11:45:30;16.27;;;14.77;;
870;SDS011;422;51.280;7.236;2023-05-15T11:48:00;15.97;;;13.30;;
870;SDS011;422;51.280;7.236;2023-05-15T11:50:29;14.03;;;12.63;;
870;SDS011;422;51.280;7.236;2023-05-15T11:53:00;12.40;;;11.20;;
870;SDS011;422;51.280;7.236;2023-05-15T11:55:29;11.60;;;10.67;;
870;SDS011;422;51.280;7.236;2023-05-15T11:57:57;13.07;;;11.93;;
870;SDS011;422;51.280;7.236;2023-05-15T12:00:25;13.30;;;12.20;;
870;SDS011;422;51.280;7.236;2023-05-15T12:02:52;12.77;;;11.57;;
870;SDS011;422;51.280;7.236;2023-05-15T12:05:21;11.70;;;10.70;;
870;SDS011;422;51.280;7.236;2023-05-15T12:07:49;11.87;;;10.77;;
870;SDS011;422;51.280;7.236;2023-05-15T12:10:16;11.47;;;10.23;;
870;SDS011;422;51.280;7.236;2023-05-15T12:12:44;13.73;;;12.43;;
870;SDS011;422;51.280;7.236;2023-05-15T12:15:12;11.53;;;10.33;;
870;SDS011;422;51.280;7.236;2023-05-15T12:17:41;10.53;;;9.43;;
870;SDS011;422;51.280;7.236;2023-05-15T12:20:10;13.83;;;11.30;;
870;SDS011;422;51.280;7.236;2023-05-15T12:22:42;12.10;;;10.97;;
870;SDS011;422;51.280;7.236;2023-05-15T12:25:10;11.30;;;10.20;;
870;SDS011;422;51.280;7.236;2023-05-15T12:27:38;11.37;;;9.90;;
870;SDS011;422;51.280;7.236;2023-05-15T12:30:06;11.30;;;10.30;;
870;SDS011;422;51.280;7.236;2023-05-15T12:32:35;12.10;;;11.00;;
870;SDS011;422;51.280;7.236;2023-05-15T12:35:03;12.87;;;11.60;;
870;SDS011;422;51.280;7.236;2023-05-15T12:37:31;10.70;;;9.80;;
870;SDS011;422;51.280;7.236;2023-05-15T12:40:02;11.90;;;10.80;;
870;SDS011;422;51.280;7.236;2023-05-15T12:42:37;11.70;;;10.63;;
870;SDS011;422;51.280;7.236;2023-05-15T12:45:11;11.50;;;10.37;;
870;SDS011;422;51.280;7.236;2023-05-15T12:47:39;11.50;;;10.50;;
870;SDS011;422;51.280;7.236;2023-05-15T12:50:13;13.40;;;10.23;;
870;SDS011;422;51.280;7.236;2023-05-15T12:52:50;8.90;;;8.00;;
870;SDS011;422;51.280;7.236;2023-05-15T12:55:23;8.50;;;7.80;;
870;SDS011;422;51.280;7.236;2023-05-15T12:57:51;9.33;;;8.50;;
870;SDS011;422;51.280;7.236;2023-05-15T13:00:20;9.17;;;8.37;;
870;SDS011;422;51.280;7.236;2023-05-15T13:02:47;9.40;;;8.23;;
870;SDS011;422;51.280;7.236;2023-05-15T13:05:16;11.37;;;10.27;;
870;SDS011;422;51.280;7.236;2023-05-15T13:07:43;9.77;;;8.87;;
870;SDS011;422;51.280;7.236;2023-05-15T13:10:11;9.53;;;8.50;;
870;SDS011;422;51.280;7.236;2023-05-15T13:12:41;9.00;;;8.20;;
870;SDS011;422;51.280;7.236;2023-05-15T13:15:21;8.40;;;7.70;;
870;SDS011;422;51.280;7.236;2023-05-15T13:17:54;8.67;;;7.83;;
870;SDS011;422;51.280;7.236;2023-05-15T13:20:25;9.07;;;8.37;;
870;SDS011;422;51.280;7.236;2023-05-15T13:22:53;9.87;;;8.90;;
870;SDS011;422;51.280;7.236;2023-05-15T13:25:20;10.07;;;8.57;;
870;SDS011;422;51.280;7.236;2023-05-15T13:27:49;10.70;;;9.60;;
870;SDS011;422;51.280;7.236;2023-05-15T13:30:16;10.30;;;7.97;;
870;SDS011;422;51.280;7.236;2023-05-15T13:32:43;7.70;;;6.67;;
870;SDS011;422;51.280;7.236;2023-05-15T13:35:13;7.97;;;7.17;;
870;SDS011;422;51.280;7.236;2023-05-15T13:37:40;8.23;;;7.63;;
870;SDS011;422;51.280;7.236;2023-05-15T13:40:08;9.70;;;8.90;;
870;SDS011;422;51.280;7.236;2023-05-15T13:42:36;11.53;;;9.80;;
870;SDS011;422;51.280;7.236;2023-05-15T13:45:06;9.97;;;9.07;;
870;SDS011;422;51.280;7.236;2023-05-15T13:47:34;11.50;;;10.60;;
870;SDS011;422;51.280;7.236;2023-05-15T13:50:03;10.77;;;9.77;;
870;SDS011;422;51.280;7.236;2023-05-15T13:52:31;9.63;;;8.73;;
870;SDS011;422;51.280;7.236;2023-05-15T13:54:59;10.50;;;9.43;;
870;SDS011;422;51.280;7.236;2023-05-15T13:57:26;14.10;;;9.00;;
870;SDS011;422;51.280;7.236;2023-05-15T13:59:53;9.30;;;8.50;;
870;SDS011;422;51.280;7.236;2023-05-15T14:02:22;10.00;;;9.20;;
870;SDS011;422;51.280;7.236;2023-05-15T14:04:50;9.57;;;8.67;;
870;SDS011;422;51.280;7.236;2023-05-15T14:07:18;8.40;;;7.70;;
870;SDS011;422;51.280;7.236;2023-05-15T14:09:47;11.57;;;10.57;;
870;SDS011;422;51.280;7.236;2023-05-15T14:12:14;15.50;;;12.00;;
870;SDS011;422;51.280;7.236;2023-05-15T14:14:41;11.70;;;10.60;;
870;SDS011;422;51.280;7.236;2023-05-15T14:17:10;12.40;;;11.30;;
870;SDS011;422;51.280;7.236;2023-05-15T14:19:40;11.90;;;10.90;;
870;SDS011;422;51.280;7.236;2023-05-15T14:22:08;13.00;;;11.80;;
870;SDS011;422;51.280;7.236;2023-05-15T14:24:35;13.33;;;12.20;;
870;SDS011;422;51.280;7.236;2023-05-15T14:27:03;14.23;;;12.93;;
870;SDS011;422;51.280;7.236;2023-05-15T14:29:30;17.33;;;15.73;;
870;SDS011;422;51.280;7.236;2023-05-15T14:31:57;16.50;;;14.90;;
870;SDS011;422;51.280;7.236;2023-05-15T14:34:24;16.67;;;15.20;;
870;SDS011;422;51.280;7.236;2023-05-15T14:36:53;13.07;;;11.97;;
870;SDS011;422;51.280;7.236;2023-05-15T14:39:21;14.93;;;13.53;;
870;SDS011;422;51.280;7.236;2023-05-15T14:41:48;16.07;;;14.67;;
870;SDS011;422;51.280;7.236;2023-05-15T14:44:15;18.77;;;17.17;;
870;SDS011;422;51.280;7.236;2023-05-15T14:46:42;19.33;;;17.73;;
870;SDS011;422;51.280;7.236;2023-05-15T14:49:10;23.67;;;21.47;;
870;SDS011;422;51.280;7.236;2023-05-15T14:51:37;24.90;;;20.73;;
870;SDS011;422;51.280;7.236;2023-05-15T14:54:05;22.20;;;20.40;;
870;SDS011;422;51.280;7.236;2023-05-15T14:56:33;25.17;;;21.13;;
870;SDS011;422;51.280;7.236;2023-05-15T14:59:00;22.50;;;20.53;;
870;SDS011;422;51.280;7.236;2023-05-15T15:01:27;20.40;;;18.70;;
870;SDS011;422;51.280;7.236;2023-05-15T15:03:55;22.00;;;20.20;;
870;SDS011;422;51.280;7.236;2023-05-15T15:06:22;21.10;;;19.40;;
870;SDS011;422;51.280;7.236;2023-05-15T15:08:49;24.33;;;22.00;;
870;SDS011;422;51.280;7.236;2023-05-15T15:11:18;21.80;;;19.60;;
870;SDS011;422;51.280;7.236;2023-05-15T15:13:45;22.40;;;20.13;;
870;SDS011;422;51.280;7.236;2023-05-15T15:16:12;19.90;;;18.20;;
870;SDS011;422;51.280;7.236;2023-05-15T15:18:39;18.93;;;17.20;;
870;SDS011;422;51.280;7.236;2023-05-15T15:21:07;16.60;;;15.20;;
870;SDS011;422;51.280;7.236;2023-05-15T15:23:34;16.80;;;15.50;;
870;SDS011;422;51.280;7.236;2023-05-15T15:26:01;22.47;;;15.00;;
870;SDS011;422;51.280;7.236;2023-05-15T15:28:30;14.60;;;13.33;;
870;SDS011;422;51.280;7.236;2023-05-15T15:30:58;14.00;;;12.73;;
870;SDS011;422;51.280;7.236;2023-05-15T15:33:25;17.63;;;16.03;;
870;SDS011;422;51.280;7.236;2023-05-15T15:35:54;18.10;;;16.30;;
870;SDS011;422;51.280;7.236;2023-05-15T15:38:21;21.47;;;14.60;;
870;SDS011;422;51.280;7.236;2023-05-15T15:40:48;19.73;;;17.93;;